Create Custom Reports and Graphics: Custom Report

Latest Observations

Map

15 Minute Data

Latest Observation

39 Stations

15 Minute Data | America/Los_Angeles
as of 5/13/21 1:10 AM PDT
Station Date Time Temp (°F) RH (%) Dew Pt (°F) Wind Dir (°) Wind Spd (mph) Wind Gust (mph) Solar Rad (W/m2) Latest Rain (In) Daily Rain (In) Daily Max Temp (°F) Daily Min Temp (°F) Daily Max Wind (mph) Daily ETo (in) Daily Leaf Wet Hrs (hrs)
Colony 1 5/13/21 0100 61.6   5.0 47   24 41.3   5.9 W | 275 2.9   1.7 5.8   3.2 0   0 0.00 0.00 93.8   0.7 51.0   4.2 11.4   2.4 0.256   0.013 -
Colony 2 5/13/21 0100 57.8   1.3 58   3 43.0   2.3 NW | 310 2.3   1.8 4.2   2.4 0   0 0.00 0.00 93.6   3.3 49.8   3.3 12.1   2.4 0.259   0.024 -
5 Wells 5/13/21 0100 59.0   2.1 56   7 43.5   0.9 NW | 321 2.3   2.1 4.5   3.7 0   0 0.00 0.00 93.4   0.5 48.4   2.1 13.7   1.2 0.266   0.022 -
Simmerhorn 5/13/21 0100 59.6   2.4 51   12 41.5   3.1 - - - - - - 92.9   0.5 46.8   2.0 - - -
Galt-East 5/13/21 0100 59.8   1.7 56   6 44.1   1.2 W | 266 2.5   1.3 3.7   0.9 0   0 0.00 0.00 93.5   0.9 48.2   1.4 12.2   2.5 0.242   0.017 -
Borden Hills 5/13/21 0100 59.1   1.1 62   2 46.2   2.0 NE | 48 2.9   1.1 3.7   1.2 0   0 0.00 0.00 95.9   1.2 53.9   0.4 13.2   2.0 0.263   0.018 -
Sierra Loma-L27 5/13/21 0100 59.5   1.0 61   3 45.9   2.3 NW | 308 1.3   0.2 3.2   0.1 - 0.00 0.00 95.6   0.6 53.2   2.1 12.9   1.6 - -
Lockeford 5/13/21 0100 57.9   2.7 57   14 42.8   3.4 NNE | 23 0.4   0.0 2.4   0.3 0   0 0.00 0.00 92.6   0.4 48.2   2.2 11.1   0.3 0.233   0.019 1.9   0.3
Lone Oak-L28 5/13/21 0100 57.0   6.5 65   29 45.4   3.4 NE | 34 1.2   0.6 3.7   1.4 - 0.00 0.00 93.3   0.7 46.0   0.8 11.2   1.8 - -
Kost Rd 5/13/21 0100 58.0   2.3 59   1 43.8   2.4 NE | 49 1.3   0.2 2.8   0.1 0   0 0.00 0.00 93.6   0.3 47.6   1.1 12.7   1.8 0.241   0.011 -
Thornton 5/13/21 0100 54.6   4.5 63   6 42.4   1.6 N | 0 0.0   0.1 0.0   1.7 0   0 0.00 0.00 92.9   0.1 47.5   1.8 12.8   1.7 0.114   0.016 0.0   0.0
Lodi (LangeTwins) 5/13/21 0100 57.5   2.5 61   1 44.0   2.1 N | 0 0.0   1.4 0.0   3.4 0   0 0.00 0.00 94.6   0.1 49.3   2.2 13.5   1.7 0.252   0.012 0.0   0.0
Gilbeau Ranch 5/13/21 0100 56.9   0.2 61   5 43.6   2.1 NW | 308 0.1   0.1 1.7   1.2 0   0 0.00 0.00 94.2   0.0 49.6   2.5 13.0   1.6 0.242   0.016 -
Galt West 5/13/21 0100 56.0   4.1 66   9 45.0   0.1 NNE | 19 1.7   0.3 2.9   0.8 0   0 0.00 0.00 93.4   0.6 47.6   2.2 12.7   2.1 0.251   0.018 -
Valley Oak 5/13/21 0100 54.9   1.9 66   2 43.8   0.8 NE | 39 0.9   0.5 2.8   1.5 0   0 0.00 0.00 92.6   0.4 46.7   1.6 11.8   1.8 0.237   0.009 -
Guard Rd (Lodi WSW) 5/13/21 0100 60.1   2.4 55   8 43.8   1.4 WNW | 288 0.5   0.5 3.2   0.1 0   0 0.00 0.00 90.8   3.1 44.6   1.0 14.1   2.2 0.259   0.007 0.0   0.0
Linden 5/13/21 0100 52.7   0.1 91   1 50.1   0.3 N | 0 0.0   0.0 0.0   0.0 - 0.00 0.00 93.0   0.9 46.6   1.9 11.5   2.2 - 12.2   2.2
DeVries Road-North 5/13/21 0100 53.9   3.8 73   8 45.5   0.7 NNE | 23 0.5   1.4 2.1   0.7 0   0 0.00 0.00 92.7   0.4 46.5   0.9 13.3   0.8 0.239   0.016 -
Acampo 5/13/21 0100 55.8   1.5 63   1 43.5   2.0 N | 0 0.0   0.0 0.0   1.4 0   0 - 0.00 92.9   0.5 47.1   1.3 12.1   0.0 0.246   0.019 0.0   0.0
Acampo (Woodbridge) 5/13/21 0100 59.0   2.4 55   0 43.0   2.2 WNW | 301 1.8   0.4 4.5   1.0 0   0 0.00 0.00 93.2   0.2 50.5   0.3 15.6   2.7 0.283   0.026 -
Lodi West 5/13/21 0100 58.2   2.3 59   6 44.1   0.4 NNE | 23 0.0   0.2 1.1   0.7 0   0 0.00 0.00 93.2   0.8 49.9   0.1 14.0   2.6 0.241   0.010 24.0   0.0
Teresi-Alpine Rd (East Lodi) 5/13/21 0100 60.9   1.3 53   0 43.9   1.2 N | 5 2.0   1.1 3.7   0.7 0   0 0.00 0.00 94.7   0.7 51.0   2.4 14.4   0.3 - -
Victor - N (Katusha) 5/13/21 0100 59.5   1.9 50   11 41.0   3.4 NNW | 338 1.0   1.0 4.8   4.8 - 0.00 0.00 93.9   0.9 48.4   1.2 - - -
Live Oak 5/13/21 0100 57.2   0.5 58   6 42.4   2.9 ENE | 74 0.4   0.4 1.3   0.9 0   0 0.00 0.00 94.6   0.4 47.4   0.8 12.3   0.8 0.251   0.018 -
Sheldon 5/13/21 0100 59.9   1.9 53   10 42.8   2.7 SW | 219 4.6   4.4 8.1   5.4 0   0 0.00 0.00 93.9   0.9 48.0   3.2 12.1   0.3 0.259   0.028 0.0   0.0
Sloughhouse 5/13/21 0100 55.4   2.7 66   7 44.2   0.1 N | 0 0.0   0.0 0.0   0.0 0   0 0.00 0.00 95.2   1.1 42.9   1.0 11.8   3.0 0.242   0.020 -
Utter - Wilson 5/13/21 0100 56.9   1.6 70   5 47.3   0.4 SSW | 211 4.7   0.3 8.9   2.9 0   0 0.00 0.00 93.5   6.3 50.9   4.3 13.8   3.4 0.260   0.017 -
Clarksburg 5/13/21 0100 59.2   0.8 57   6 44.0   2.1 SSW | 212 3.3   0.1 9.0   3.1 0   0 0.00 0.00 93.2   2.7 52.4   4.3 15.3   2.4 0.293   0.038 -
Clarksburg-3A2 5/13/21 0100 58.2   2.8 62   4 45.2   0.9 WSW | 256 4.3   0.7 9.5   3.2 0   0 0.00 0.00 92.4   2.7 52.4   7.0 16.0   2.9 0.278   0.032 -
Gorter - Wilson 5/13/21 0100 57.2   2.0 65   1 45.4   1.5 SSW | 206 1.6   0.3 5.3   1.5 0   0 0.00 0.00 93.9   3.0 46.8   4.5 13.0   1.3 0.229   0.023 -
Hood 5/13/21 0100 58.6   0.9 63   2 46.3   0.2 SSW | 210 2.5   0.2 6.3   2.1 0   0 0.00 0.00 90.1   6.9 50.3   5.0 13.8   2.3 0.245   0.023 -
Courtland-C3 5/13/21 0100 59.7   0.4 56   1 44.0   0.0 SW | 226 4.0   0.8 11.0   5.9 - 0.00 0.00 92.8   2.1 51.6   0.9 14.8   0.7 - -
Pacific Fruit 5/13/21 0100 59.1   1.2 61   3 45.8   0.2 SW | 236 7.1   5.1 15.9   12.6 0   0 0.00 0.00 92.3   2.3 51.9   3.2 18.2   3.4 0.265   0.020 -
Ryer Island South 5/13/21 0100 59.0   5.8 58   15 44.4   2.4 WSW | 254 8.1   5.9 16.4   11.8 0   0 0.00 0.00 90.4   2.6 46.1   10.7 17.3   3.5 0.256   0.011 0.0   0.0
Farmington (Mobley100) 5/13/21 0100 56.4   0.7 75   1 48.6   0.5 N | 0 0.0   0.0 0.0   0.0 - - - 92.0   1.3 48.2   0.7 7.6   0.1 - -
Collegeville 5/13/21 0100 58.5   4.6 72   15 49.4   0.6 NNE | 21 1.1   1.1 2.7   2.7 0   0 0.00 0.00 93.2   0.3 47.2   0.2 11.0   0.3 0.231   0.000 -
Oakdale North (28 Mile Rd) 5/13/21 0100 65.4   1.2 37   9 38.4   4.6 N | 357 0.1   0.0 1.1   0.1 - - - 93.4   2.3 51.0   0.8 7.3   0.3 - -
Escalon 5/13/21 0100 61.5   3.3 59   20 47.1   4.7 NNE | 24 1.7   1.1 4.3   1.9 - 0.00 0.00 92.6   0.8 50.9   2.8 11.3   0.2 - 5.2   1.1
Claussen 5/13/21 0100 64.6   1.8 53   15 47.1   7.1 WNW | 302 4.3   0.3 9.6   3.7 0   0 0.00 0.00 92.9   2.4 48.7   0.7 12.9   1.2 0.272   0.008 -
Max     65.4 91 50.1 - 8.1 16.4 0 0.00 0.00 95.9 53.9 18.2 0.293 24.0
Avg     58.4 60 44.5 - 1.9 4.5 0 0.00 - - - - - -
Min     52.7 37 38.4 - 0.0 0.0 0 0.00 0.00 90.1 42.9 7.3 0.114 0.0

Latest Observations

Map

Hourly Data